sensor_id;sensor_type;location;lat;lon;timestamp;pressure;altitude;pressure_sealevel;temperature;humidity
57791;BME280;43621;51.798;21.588;2024-03-02T00:01:45;99680.36;;;6.95;74.88
57791;BME280;43621;51.798;21.588;2024-03-02T00:05:50;99685.56;;;6.98;74.76
57791;BME280;43621;51.798;21.588;2024-03-02T00:09:55;99690.63;;;6.97;74.73
57791;BME280;43621;51.798;21.588;2024-03-02T00:13:56;99692.71;;;6.97;74.69
57791;BME280;43621;51.798;21.588;2024-03-02T00:17:58;99694.16;;;6.97;74.77
57791;BME280;43621;51.798;21.588;2024-03-02T00:22:01;99688.89;;;6.95;74.73
57791;BME280;43621;51.798;21.588;2024-03-02T00:26:03;99692.65;;;6.96;74.75
57791;BME280;43621;51.798;21.588;2024-03-02T00:34:33;99689.24;;;6.93;74.87
57791;BME280;43621;51.798;21.588;2024-03-02T00:38:53;99684.36;;;6.95;74.86
57791;BME280;43621;51.798;21.588;2024-03-02T00:42:56;99675.06;;;6.93;74.96
57791;BME280;43621;51.798;21.588;2024-03-02T00:47:00;99669.11;;;6.83;75.10
57791;BME280;43621;51.798;21.588;2024-03-02T00:51:05;99671.48;;;6.79;75.12
57791;BME280;43621;51.798;21.588;2024-03-02T00:55:07;99663.95;;;6.82;75.14
57791;BME280;43621;51.798;21.588;2024-03-02T00:59:10;99661.34;;;6.84;75.09
57791;BME280;43621;51.798;21.588;2024-03-02T01:03:12;99657.10;;;6.81;75.26
57791;BME280;43621;51.798;21.588;2024-03-02T01:07:14;99658.01;;;6.76;75.27
57791;BME280;43621;51.798;21.588;2024-03-02T01:11:15;99662.52;;;6.74;75.31
57791;BME280;43621;51.798;21.588;2024-03-02T01:15:17;99668.43;;;6.73;75.27
57791;BME280;43621;51.798;21.588;2024-03-02T01:19:19;99670.45;;;6.72;75.24
57791;BME280;43621;51.798;21.588;2024-03-02T01:23:21;99669.09;;;6.67;75.39
57791;BME280;43621;51.798;21.588;2024-03-02T01:27:23;99665.79;;;6.61;75.86
57791;BME280;43621;51.798;21.588;2024-03-02T01:31:24;99659.08;;;6.54;75.93
57791;BME280;43621;51.798;21.588;2024-03-02T01:35:26;99657.30;;;6.55;75.81
57791;BME280;43621;51.798;21.588;2024-03-02T01:39:28;99659.00;;;6.55;75.86
57791;BME280;43621;51.798;21.588;2024-03-02T01:43:29;99652.07;;;6.51;76.11
57791;BME280;43621;51.798;21.588;2024-03-02T01:47:31;99640.22;;;6.49;76.16
57791;BME280;43621;51.798;21.588;2024-03-02T01:51:33;99635.95;;;6.44;76.59
57791;BME280;43621;51.798;21.588;2024-03-02T01:55:35;99639.61;;;6.41;76.55
57791;BME280;43621;51.798;21.588;2024-03-02T01:59:37;99640.45;;;6.44;76.53
57791;BME280;43621;51.798;21.588;2024-03-02T02:03:38;99637.42;;;6.47;76.54
57791;BME280;43621;51.798;21.588;2024-03-02T02:07:41;99633.66;;;6.49;76.42
57791;BME280;43621;51.798;21.588;2024-03-02T02:11:43;99630.42;;;6.46;76.45
57791;BME280;43621;51.798;21.588;2024-03-02T02:15:44;99631.58;;;6.44;76.42
57791;BME280;43621;51.798;21.588;2024-03-02T02:19:46;99628.26;;;6.44;76.20
57791;BME280;43621;51.798;21.588;2024-03-02T02:23:48;99628.00;;;6.43;76.24
57791;BME280;43621;51.798;21.588;2024-03-02T02:27:50;99624.46;;;6.42;76.27
57791;BME280;43621;51.798;21.588;2024-03-02T02:31:52;99617.52;;;6.40;76.32
57791;BME280;43621;51.798;21.588;2024-03-02T02:35:53;99614.97;;;6.35;76.31
57791;BME280;43621;51.798;21.588;2024-03-02T02:39:55;99614.60;;;6.31;76.49
57791;BME280;43621;51.798;21.588;2024-03-02T02:43:56;99614.02;;;6.30;76.69
57791;BME280;43621;51.798;21.588;2024-03-02T02:47:58;99609.79;;;6.26;76.76
57791;BME280;43621;51.798;21.588;2024-03-02T02:51:59;99603.50;;;6.25;77.05
57791;BME280;43621;51.798;21.588;2024-03-02T02:56:01;99599.09;;;6.17;77.19
57791;BME280;43621;51.798;21.588;2024-03-02T03:00:05;99592.20;;;6.17;77.32
57791;BME280;43621;51.798;21.588;2024-03-02T03:04:11;99587.31;;;6.17;77.40
57791;BME280;43621;51.798;21.588;2024-03-02T03:08:13;99583.30;;;6.13;77.57
57791;BME280;43621;51.798;21.588;2024-03-02T03:12:15;99588.35;;;6.10;77.59
57791;BME280;43621;51.798;21.588;2024-03-02T03:16:16;99593.16;;;6.13;77.58
57791;BME280;43621;51.798;21.588;2024-03-02T03:20:18;99595.95;;;6.10;77.62
57791;BME280;43621;51.798;21.588;2024-03-02T03:24:19;99599.65;;;6.07;77.83
57791;BME280;43621;51.798;21.588;2024-03-02T03:28:21;99603.58;;;6.06;77.76
57791;BME280;43621;51.798;21.588;2024-03-02T03:32:23;99602.02;;;6.08;77.89
57791;BME280;43621;51.798;21.588;2024-03-02T03:36:24;99599.24;;;6.08;77.80
57791;BME280;43621;51.798;21.588;2024-03-02T03:40:26;99595.13;;;6.13;77.88
57791;BME280;43621;51.798;21.588;2024-03-02T03:44:28;99592.77;;;6.11;77.89
57791;BME280;43621;51.798;21.588;2024-03-02T03:48:29;99590.55;;;6.13;77.73
57791;BME280;43621;51.798;21.588;2024-03-02T03:52:32;99589.42;;;6.14;78.03
57791;BME280;43621;51.798;21.588;2024-03-02T03:56:34;99589.60;;;6.10;78.00
57791;BME280;43621;51.798;21.588;2024-03-02T04:00:35;99601.41;;;6.14;77.93
57791;BME280;43621;51.798;21.588;2024-03-02T04:04:37;99604.36;;;6.16;77.93
57791;BME280;43621;51.798;21.588;2024-03-02T04:08:38;99596.93;;;6.18;77.84
57791;BME280;43621;51.798;21.588;2024-03-02T04:12:40;99597.02;;;6.19;77.71
57791;BME280;43621;51.798;21.588;2024-03-02T04:16:41;99604.73;;;6.20;77.80
57791;BME280;43621;51.798;21.588;2024-03-02T04:20:43;99592.36;;;6.23;77.76
57791;BME280;43621;51.798;21.588;2024-03-02T04:24:44;99587.15;;;6.19;77.81
57791;BME280;43621;51.798;21.588;2024-03-02T04:28:46;99588.47;;;6.18;78.14
57791;BME280;43621;51.798;21.588;2024-03-02T04:32:48;99592.45;;;6.16;78.19
57791;BME280;43621;51.798;21.588;2024-03-02T04:36:50;99591.87;;;6.09;78.39
57791;BME280;43621;51.798;21.588;2024-03-02T04:40:52;99597.94;;;6.12;78.51
57791;BME280;43621;51.798;21.588;2024-03-02T04:44:54;99592.43;;;6.14;78.42
57791;BME280;43621;51.798;21.588;2024-03-02T04:48:55;99586.77;;;6.15;78.43
57791;BME280;43621;51.798;21.588;2024-03-02T04:52:58;99585.04;;;6.13;78.62
57791;BME280;43621;51.798;21.588;2024-03-02T04:57:00;99583.48;;;6.13;78.61
57791;BME280;43621;51.798;21.588;2024-03-02T05:01:01;99574.61;;;6.13;78.70
57791;BME280;43621;51.798;21.588;2024-03-02T05:05:03;99577.00;;;6.14;78.68
57791;BME280;43621;51.798;21.588;2024-03-02T05:09:05;99582.20;;;6.18;78.64
57791;BME280;43621;51.798;21.588;2024-03-02T05:13:06;99590.42;;;6.19;78.50
57791;BME280;43621;51.798;21.588;2024-03-02T05:17:08;99602.59;;;6.23;78.57
57791;BME280;43621;51.798;21.588;2024-03-02T05:21:10;99600.11;;;6.26;78.48
57791;BME280;43621;51.798;21.588;2024-03-02T05:25:12;99602.29;;;6.23;78.68
57791;BME280;43621;51.798;21.588;2024-03-02T05:29:14;99603.73;;;6.22;78.76
57791;BME280;43621;51.798;21.588;2024-03-02T05:33:16;99615.30;;;6.22;78.70
57791;BME280;43621;51.798;21.588;2024-03-02T05:37:17;99623.20;;;6.25;78.86
57791;BME280;43621;51.798;21.588;2024-03-02T05:41:19;99625.56;;;6.24;78.88
57791;BME280;43621;51.798;21.588;2024-03-02T05:45:21;99631.87;;;6.23;78.84
57791;BME280;43621;51.798;21.588;2024-03-02T05:49:22;99638.77;;;6.26;78.87
57791;BME280;43621;51.798;21.588;2024-03-02T05:53:24;99645.23;;;6.32;78.77
57791;BME280;43621;51.798;21.588;2024-03-02T05:57:25;99641.83;;;6.37;78.63
57791;BME280;43621;51.798;21.588;2024-03-02T06:01:49;99637.70;;;6.41;78.50
57791;BME280;43621;51.798;21.588;2024-03-02T06:05:53;99630.58;;;6.44;78.41
57791;BME280;43621;51.798;21.588;2024-03-02T06:09:55;99639.23;;;6.46;78.26
57791;BME280;43621;51.798;21.588;2024-03-02T06:13:56;99647.27;;;6.50;78.23
57791;BME280;43621;51.798;21.588;2024-03-02T06:17:58;99647.31;;;6.56;78.26
57791;BME280;43621;51.798;21.588;2024-03-02T06:21:59;99660.80;;;6.57;77.99
57791;BME280;43621;51.798;21.588;2024-03-02T06:26:01;99660.66;;;6.54;78.05
57791;BME280;43621;51.798;21.588;2024-03-02T06:30:04;99664.20;;;6.57;78.05
57791;BME280;43621;51.798;21.588;2024-03-02T06:34:06;99658.02;;;6.59;77.94
57791;BME280;43621;51.798;21.588;2024-03-02T06:38:07;99650.24;;;6.65;77.94
57791;BME280;43621;51.798;21.588;2024-03-02T06:42:09;99654.68;;;6.65;77.80
57791;BME280;43621;51.798;21.588;2024-03-02T06:46:11;99655.23;;;6.65;77.85
57791;BME280;43621;51.798;21.588;2024-03-02T06:50:16;99648.91;;;6.66;77.80
57791;BME280;43621;51.798;21.588;2024-03-02T06:54:17;99646.20;;;6.74;77.72
57791;BME280;43621;51.798;21.588;2024-03-02T06:58:19;99645.98;;;6.81;77.52
57791;BME280;43621;51.798;21.588;2024-03-02T07:02:20;99651.04;;;6.83;77.25
57791;BME280;43621;51.798;21.588;2024-03-02T07:06:22;99650.55;;;6.82;77.31
57791;BME280;43621;51.798;21.588;2024-03-02T07:10:24;99660.14;;;6.82;77.16
57791;BME280;43621;51.798;21.588;2024-03-02T07:14:26;99662.40;;;6.80;77.32
57791;BME280;43621;51.798;21.588;2024-03-02T07:18:47;99661.31;;;6.81;77.17
57791;BME280;43621;51.798;21.588;2024-03-02T07:22:53;99660.14;;;6.75;77.28
57791;BME280;43621;51.798;21.588;2024-03-02T07:26:54;99670.23;;;6.82;77.29
57791;BME280;43621;51.798;21.588;2024-03-02T07:31:03;99678.94;;;6.85;77.28
57791;BME280;43621;51.798;21.588;2024-03-02T07:35:06;99682.61;;;6.89;77.19
57791;BME280;43621;51.798;21.588;2024-03-02T07:39:07;99688.84;;;6.96;76.99
57791;BME280;43621;51.798;21.588;2024-03-02T07:43:09;99695.46;;;6.95;76.88
57791;BME280;43621;51.798;21.588;2024-03-02T07:47:11;99694.29;;;6.99;76.78
57791;BME280;43621;51.798;21.588;2024-03-02T07:51:13;99695.58;;;6.98;76.76
57791;BME280;43621;51.798;21.588;2024-03-02T07:55:15;99694.70;;;6.99;76.59
57791;BME280;43621;51.798;21.588;2024-03-02T07:59:18;99689.31;;;7.07;76.67
57791;BME280;43621;51.798;21.588;2024-03-02T08:03:19;99686.68;;;7.22;76.52
57791;BME280;43621;51.798;21.588;2024-03-02T08:07:21;99685.89;;;7.34;75.99
57791;BME280;43621;51.798;21.588;2024-03-02T08:11:23;99686.21;;;7.34;75.76
57791;BME280;43621;51.798;21.588;2024-03-02T08:15:24;99690.04;;;7.32;75.61
57791;BME280;43621;51.798;21.588;2024-03-02T08:19:26;99694.52;;;7.22;75.88
57791;BME280;43621;51.798;21.588;2024-03-02T08:23:27;99692.83;;;7.38;76.12
57791;BME280;43621;51.798;21.588;2024-03-02T08:27:31;99690.82;;;7.58;75.36
57791;BME280;43621;51.798;21.588;2024-03-02T08:31:33;99692.48;;;7.61;74.87
57791;BME280;43621;51.798;21.588;2024-03-02T08:35:35;99704.85;;;7.66;74.73
57791;BME280;43621;51.798;21.588;2024-03-02T08:39:37;99708.14;;;7.69;74.49
57791;BME280;43621;51.798;21.588;2024-03-02T08:43:40;99709.84;;;7.75;74.40
57791;BME280;43621;51.798;21.588;2024-03-02T08:47:43;99711.84;;;7.81;74.17
57791;BME280;43621;51.798;21.588;2024-03-02T08:51:45;99707.31;;;7.87;74.15
57791;BME280;43621;51.798;21.588;2024-03-02T08:55:46;99710.09;;;8.02;73.90
57791;BME280;43621;51.798;21.588;2024-03-02T08:59:48;99706.46;;;8.14;73.59
57791;BME280;43621;51.798;21.588;2024-03-02T09:03:50;99706.45;;;8.20;73.00
57791;BME280;43621;51.798;21.588;2024-03-02T09:07:52;99702.38;;;8.24;72.93
57791;BME280;43621;51.798;21.588;2024-03-02T09:11:53;99696.08;;;8.31;72.72
57791;BME280;43621;51.798;21.588;2024-03-02T09:15:59;99697.47;;;8.41;73.10
57791;BME280;43621;51.798;21.588;2024-03-02T09:20:00;99697.73;;;8.52;72.69
57791;BME280;43621;51.798;21.588;2024-03-02T09:24:02;99699.96;;;8.50;71.85
57791;BME280;43621;51.798;21.588;2024-03-02T09:28:05;99700.62;;;8.47;72.10
57791;BME280;43621;51.798;21.588;2024-03-02T09:32:07;99699.05;;;8.55;71.96
57791;BME280;43621;51.798;21.588;2024-03-02T09:36:20;99698.55;;;8.54;72.10
57791;BME280;43621;51.798;21.588;2024-03-02T09:40:22;99700.21;;;8.65;72.24
57791;BME280;43621;51.798;21.588;2024-03-02T09:44:24;99700.63;;;8.69;71.44
57791;BME280;43621;51.798;21.588;2024-03-02T09:48:27;99700.72;;;8.57;71.54
57791;BME280;43621;51.798;21.588;2024-03-02T09:52:28;99698.27;;;8.62;71.47
57791;BME280;43621;51.798;21.588;2024-03-02T09:56:30;99701.58;;;8.63;71.38
57791;BME280;43621;51.798;21.588;2024-03-02T10:00:32;99698.52;;;8.69;71.15
57791;BME280;43621;51.798;21.588;2024-03-02T10:04:34;99693.60;;;8.72;71.38
57791;BME280;43621;51.798;21.588;2024-03-02T10:08:43;99692.58;;;8.81;71.06
57791;BME280;43621;51.798;21.588;2024-03-02T10:12:45;99690.44;;;8.91;71.15
57791;BME280;43621;51.798;21.588;2024-03-02T10:16:47;99688.04;;;8.96;70.72
57791;BME280;43621;51.798;21.588;2024-03-02T10:20:48;99683.54;;;8.92;70.68
57791;BME280;43621;51.798;21.588;2024-03-02T10:24:50;99687.58;;;9.00;70.50
57791;BME280;43621;51.798;21.588;2024-03-02T10:28:52;99687.23;;;9.04;70.29
57791;BME280;43621;51.798;21.588;2024-03-02T10:33:01;99688.43;;;9.08;70.27
57791;BME280;43621;51.798;21.588;2024-03-02T10:37:05;99689.67;;;9.15;69.99
57791;BME280;43621;51.798;21.588;2024-03-02T10:41:07;99690.07;;;9.13;69.33
57791;BME280;43621;51.798;21.588;2024-03-02T10:45:10;99687.06;;;9.04;69.60
57791;BME280;43621;51.798;21.588;2024-03-02T10:49:14;99683.33;;;9.05;69.98
57791;BME280;43621;51.798;21.588;2024-03-02T10:53:16;99675.98;;;9.11;69.80
57791;BME280;43621;51.798;21.588;2024-03-02T10:57:21;99673.06;;;9.20;69.46
57791;BME280;43621;51.798;21.588;2024-03-02T11:01:24;99669.70;;;9.26;69.09
57791;BME280;43621;51.798;21.588;2024-03-02T11:05:28;99659.88;;;9.27;68.97
57791;BME280;43621;51.798;21.588;2024-03-02T11:09:33;99648.39;;;9.40;69.02
57791;BME280;43621;51.798;21.588;2024-03-02T11:13:36;99649.98;;;9.60;68.34
57791;BME280;43621;51.798;21.588;2024-03-02T11:17:40;99661.11;;;9.78;68.02
57791;BME280;43621;51.798;21.588;2024-03-02T11:21:42;99666.61;;;9.91;67.33
57791;BME280;43621;51.798;21.588;2024-03-02T11:25:44;99663.85;;;9.87;66.90
57791;BME280;43621;51.798;21.588;2024-03-02T11:29:46;99664.36;;;9.84;67.28
57791;BME280;43621;51.798;21.588;2024-03-02T11:33:48;99666.22;;;9.96;67.17
57791;BME280;43621;51.798;21.588;2024-03-02T11:37:51;99661.42;;;9.97;67.21
57791;BME280;43621;51.798;21.588;2024-03-02T11:41:53;99661.77;;;10.01;66.81
57791;BME280;43621;51.798;21.588;2024-03-02T11:46:03;99660.84;;;9.92;66.83
57791;BME280;43621;51.798;21.588;2024-03-02T11:50:08;99662.65;;;9.93;67.13
57791;BME280;43621;51.798;21.588;2024-03-02T11:54:10;99663.41;;;10.02;66.96
57791;BME280;43621;51.798;21.588;2024-03-02T11:58:13;99659.84;;;9.98;66.44
57791;BME280;43621;51.798;21.588;2024-03-02T12:02:19;99657.88;;;9.88;66.71
57791;BME280;43621;51.798;21.588;2024-03-02T12:06:20;99658.04;;;9.80;67.15
57791;BME280;43621;51.798;21.588;2024-03-02T12:10:24;99659.12;;;9.80;67.45
57791;BME280;43621;51.798;21.588;2024-03-02T12:14:26;99663.25;;;9.84;67.27
57791;BME280;43621;51.798;21.588;2024-03-02T12:18:30;99658.95;;;9.82;67.39
57791;BME280;43621;51.798;21.588;2024-03-02T12:22:31;99661.41;;;9.86;67.24
57791;BME280;43621;51.798;21.588;2024-03-02T12:26:33;99660.38;;;9.76;67.15
57791;BME280;43621;51.798;21.588;2024-03-02T12:30:35;99661.90;;;9.71;67.32
57791;BME280;43621;51.798;21.588;2024-03-02T12:34:38;99665.13;;;9.68;67.26
57791;BME280;43621;51.798;21.588;2024-03-02T12:38:43;99668.14;;;9.66;67.55
57791;BME280;43621;51.798;21.588;2024-03-02T12:42:46;99671.95;;;9.77;67.51
57791;BME280;43621;51.798;21.588;2024-03-02T12:46:48;99671.16;;;9.76;67.16
57791;BME280;43621;51.798;21.588;2024-03-02T12:50:49;99669.92;;;9.68;67.13
57791;BME280;43621;51.798;21.588;2024-03-02T12:54:51;99663.16;;;9.58;67.40
57791;BME280;43621;51.798;21.588;2024-03-02T12:58:55;99665.64;;;9.50;67.45
57791;BME280;43621;51.798;21.588;2024-03-02T13:02:57;99661.45;;;9.42;67.64
57791;BME280;43621;51.798;21.588;2024-03-02T13:07:04;99660.76;;;9.46;67.74
57791;BME280;43621;51.798;21.588;2024-03-02T13:11:06;99657.23;;;9.47;67.87
57791;BME280;43621;51.798;21.588;2024-03-02T13:15:08;99655.64;;;9.49;67.92
57791;BME280;43621;51.798;21.588;2024-03-02T13:19:11;99653.67;;;9.51;67.73
57791;BME280;43621;51.798;21.588;2024-03-02T13:23:13;99649.11;;;9.51;67.82
57791;BME280;43621;51.798;21.588;2024-03-02T13:27:15;99644.95;;;9.47;67.81
57791;BME280;43621;51.798;21.588;2024-03-02T13:31:17;99641.73;;;9.39;68.04
57791;BME280;43621;51.798;21.588;2024-03-02T13:35:19;99638.78;;;9.31;68.42
57791;BME280;43621;51.798;21.588;2024-03-02T13:39:20;99639.46;;;9.37;68.61
57791;BME280;43621;51.798;21.588;2024-03-02T13:43:22;99639.34;;;9.40;68.38
57791;BME280;43621;51.798;21.588;2024-03-02T13:47:25;99637.02;;;9.37;68.54
57791;BME280;43621;51.798;21.588;2024-03-02T13:51:27;99634.95;;;9.39;68.61
57791;BME280;43621;51.798;21.588;2024-03-02T13:55:28;99634.20;;;9.36;68.81
57791;BME280;43621;51.798;21.588;2024-03-02T13:59:30;99635.80;;;9.37;68.99
57791;BME280;43621;51.798;21.588;2024-03-02T14:03:32;99637.15;;;9.36;68.82
57791;BME280;43621;51.798;21.588;2024-03-02T14:07:33;99638.94;;;9.33;68.98
57791;BME280;43621;51.798;21.588;2024-03-02T14:11:35;99638.17;;;9.28;69.13
57791;BME280;43621;51.798;21.588;2024-03-02T14:15:37;99643.40;;;9.30;69.42
57791;BME280;43621;51.798;21.588;2024-03-02T14:19:40;99643.09;;;9.34;69.08
57791;BME280;43621;51.798;21.588;2024-03-02T14:23:42;99639.58;;;9.28;69.30
57791;BME280;43621;51.798;21.588;2024-03-02T14:27:43;99640.77;;;9.25;69.52
57791;BME280;43621;51.798;21.588;2024-03-02T14:31:45;99639.04;;;9.24;69.46
57791;BME280;43621;51.798;21.588;2024-03-02T14:35:49;99641.81;;;9.28;69.42
57791;BME280;43621;51.798;21.588;2024-03-02T14:39:51;99642.61;;;9.27;69.49
57791;BME280;43621;51.798;21.588;2024-03-02T14:43:53;99636.89;;;9.29;69.53
57791;BME280;43621;51.798;21.588;2024-03-02T14:47:54;99639.48;;;9.23;69.65
57791;BME280;43621;51.798;21.588;2024-03-02T14:51:57;99636.80;;;9.15;70.00
57791;BME280;43621;51.798;21.588;2024-03-02T14:55:58;99638.84;;;9.09;70.20
57791;BME280;43621;51.798;21.588;2024-03-02T15:00:00;99641.20;;;9.08;70.35
57791;BME280;43621;51.798;21.588;2024-03-02T15:04:01;99641.34;;;9.05;70.51
57791;BME280;43621;51.798;21.588;2024-03-02T15:08:04;99640.16;;;8.98;70.50
57791;BME280;43621;51.798;21.588;2024-03-02T15:12:07;99634.29;;;8.98;70.66
57791;BME280;43621;51.798;21.588;2024-03-02T15:16:11;99639.15;;;8.96;70.81
57791;BME280;43621;51.798;21.588;2024-03-02T15:20:13;99638.33;;;8.92;70.99
57791;BME280;43621;51.798;21.588;2024-03-02T15:24:14;99636.54;;;8.91;71.03
57791;BME280;43621;51.798;21.588;2024-03-02T15:28:16;99637.09;;;8.86;71.08
57791;BME280;43621;51.798;21.588;2024-03-02T15:32:17;99639.10;;;8.87;71.23
57791;BME280;43621;51.798;21.588;2024-03-02T15:36:19;99637.55;;;8.83;71.28
57791;BME280;43621;51.798;21.588;2024-03-02T15:40:21;99640.27;;;8.82;71.23
57791;BME280;43621;51.798;21.588;2024-03-02T15:44:22;99642.36;;;8.86;71.22
57791;BME280;43621;51.798;21.588;2024-03-02T15:48:24;99645.00;;;8.87;71.05
57791;BME280;43621;51.798;21.588;2024-03-02T15:52:25;99647.13;;;8.83;71.09
57791;BME280;43621;51.798;21.588;2024-03-02T15:56:28;99643.21;;;8.80;71.28
57791;BME280;43621;51.798;21.588;2024-03-02T16:00:29;99643.44;;;8.80;71.34
57791;BME280;43621;51.798;21.588;2024-03-02T16:04:31;99644.98;;;8.80;71.19
57791;BME280;43621;51.798;21.588;2024-03-02T16:08:32;99642.94;;;8.78;71.27
57791;BME280;43621;51.798;21.588;2024-03-02T16:12:34;99640.68;;;8.77;71.23
57791;BME280;43621;51.798;21.588;2024-03-02T16:16:36;99637.52;;;8.76;71.24
57791;BME280;43621;51.798;21.588;2024-03-02T16:20:38;99641.51;;;8.70;71.30
57791;BME280;43621;51.798;21.588;2024-03-02T16:24:41;99644.60;;;8.66;71.38
57791;BME280;43621;51.798;21.588;2024-03-02T16:28:43;99650.16;;;8.66;71.33
57791;BME280;43621;51.798;21.588;2024-03-02T16:32:46;99650.87;;;8.64;71.47
57791;BME280;43621;51.798;21.588;2024-03-02T16:36:49;99652.57;;;8.59;71.47
57791;BME280;43621;51.798;21.588;2024-03-02T16:40:50;99654.23;;;8.62;71.63
57791;BME280;43621;51.798;21.588;2024-03-02T16:44:52;99659.08;;;8.62;71.68
57791;BME280;43621;51.798;21.588;2024-03-02T16:48:56;99662.71;;;8.60;71.67
57791;BME280;43621;51.798;21.588;2024-03-02T16:52:57;99659.52;;;8.59;71.69
57791;BME280;43621;51.798;21.588;2024-03-02T16:57:01;99660.87;;;8.58;71.63
57791;BME280;43621;51.798;21.588;2024-03-02T17:01:02;99662.10;;;8.60;71.65
57791;BME280;43621;51.798;21.588;2024-03-02T17:05:04;99665.86;;;8.60;71.66
57791;BME280;43621;51.798;21.588;2024-03-02T17:09:06;99667.87;;;8.57;71.66
57791;BME280;43621;51.798;21.588;2024-03-02T17:13:07;99668.09;;;8.57;71.58
57791;BME280;43621;51.798;21.588;2024-03-02T17:17:09;99667.86;;;8.53;71.72
57791;BME280;43621;51.798;21.588;2024-03-02T17:21:10;99668.53;;;8.48;71.80
57791;BME280;43621;51.798;21.588;2024-03-02T17:25:12;99668.18;;;8.48;71.73
57791;BME280;43621;51.798;21.588;2024-03-02T17:29:14;99666.06;;;8.44;71.85
57791;BME280;43621;51.798;21.588;2024-03-02T17:33:15;99665.79;;;8.45;71.90
57791;BME280;43621;51.798;21.588;2024-03-02T17:37:17;99664.85;;;8.44;71.89
57791;BME280;43621;51.798;21.588;2024-03-02T17:41:19;99662.23;;;8.42;71.83
57791;BME280;43621;51.798;21.588;2024-03-02T17:45:20;99659.52;;;8.42;71.94
57791;BME280;43621;51.798;21.588;2024-03-02T17:49:22;99655.31;;;8.40;71.86
57791;BME280;43621;51.798;21.588;2024-03-02T17:53:24;99655.07;;;8.41;71.89
57791;BME280;43621;51.798;21.588;2024-03-02T17:57:25;99654.02;;;8.39;71.89
57791;BME280;43621;51.798;21.588;2024-03-02T18:01:27;99650.80;;;8.40;71.87
57791;BME280;43621;51.798;21.588;2024-03-02T18:05:29;99650.70;;;8.41;71.87
57791;BME280;43621;51.798;21.588;2024-03-02T18:09:30;99650.33;;;8.45;71.91
57791;BME280;43621;51.798;21.588;2024-03-02T18:13:32;99649.77;;;8.40;71.82
57791;BME280;43621;51.798;21.588;2024-03-02T18:17:35;99651.98;;;8.32;71.99
57791;BME280;43621;51.798;21.588;2024-03-02T18:21:37;99653.72;;;8.28;71.98
57791;BME280;43621;51.798;21.588;2024-03-02T18:25:38;99652.29;;;8.28;72.05
57791;BME280;43621;51.798;21.588;2024-03-02T18:29:42;99655.82;;;8.32;72.22
57791;BME280;43621;51.798;21.588;2024-03-02T18:33:43;99657.58;;;8.32;72.21
57791;BME280;43621;51.798;21.588;2024-03-02T18:37:45;99656.17;;;8.32;72.20
57791;BME280;43621;51.798;21.588;2024-03-02T18:41:47;99649.31;;;8.31;72.12
57791;BME280;43621;51.798;21.588;2024-03-02T18:45:48;99650.54;;;8.33;72.28
57791;BME280;43621;51.798;21.588;2024-03-02T18:49:50;99654.95;;;8.32;72.21
57791;BME280;43621;51.798;21.588;2024-03-02T18:53:52;99655.83;;;8.28;72.28
57791;BME280;43621;51.798;21.588;2024-03-02T18:57:53;99658.81;;;8.24;72.31
57791;BME280;43621;51.798;21.588;2024-03-02T19:01:56;99656.05;;;8.27;72.31
57791;BME280;43621;51.798;21.588;2024-03-02T19:05:58;99657.87;;;8.22;72.31
57791;BME280;43621;51.798;21.588;2024-03-02T19:09:59;99657.09;;;8.17;72.31
57791;BME280;43621;51.798;21.588;2024-03-02T19:14:01;99659.01;;;8.17;72.39
57791;BME280;43621;51.798;21.588;2024-03-02T19:18:03;99661.80;;;8.21;72.32
57791;BME280;43621;51.798;21.588;2024-03-02T19:22:05;99666.45;;;8.26;72.07
57791;BME280;43621;51.798;21.588;2024-03-02T19:26:06;99665.20;;;8.24;72.01
57791;BME280;43621;51.798;21.588;2024-03-02T19:30:09;99663.34;;;8.25;71.83
57791;BME280;43621;51.798;21.588;2024-03-02T19:34:10;99663.92;;;8.28;71.84
57791;BME280;43621;51.798;21.588;2024-03-02T19:38:13;99661.18;;;8.32;71.72
57791;BME280;43621;51.798;21.588;2024-03-02T19:42:14;99658.77;;;8.32;71.32
57791;BME280;43621;51.798;21.588;2024-03-02T19:46:16;99660.35;;;8.28;71.28
57791;BME280;43621;51.798;21.588;2024-03-02T19:50:17;99655.06;;;8.29;71.33
57791;BME280;43621;51.798;21.588;2024-03-02T19:54:19;99652.36;;;8.28;71.28
57791;BME280;43621;51.798;21.588;2024-03-02T19:58:21;99657.22;;;8.26;71.19
57791;BME280;43621;51.798;21.588;2024-03-02T20:02:22;99657.23;;;8.27;71.13
57791;BME280;43621;51.798;21.588;2024-03-02T20:06:28;99655.11;;;8.28;70.65
57791;BME280;43621;51.798;21.588;2024-03-02T20:10:30;99654.30;;;8.22;70.80
57791;BME280;43621;51.798;21.588;2024-03-02T20:14:31;99656.91;;;8.23;70.69
57791;BME280;43621;51.798;21.588;2024-03-02T20:18:34;99660.86;;;8.22;70.47
57791;BME280;43621;51.798;21.588;2024-03-02T20:22:36;99665.50;;;8.19;70.42
57791;BME280;43621;51.798;21.588;2024-03-02T20:26:38;99663.80;;;8.18;70.52
57791;BME280;43621;51.798;21.588;2024-03-02T20:30:40;99661.13;;;8.19;70.27
57791;BME280;43621;51.798;21.588;2024-03-02T20:34:42;99662.42;;;8.14;70.23
57791;BME280;43621;51.798;21.588;2024-03-02T20:38:43;99660.89;;;8.12;70.25
57791;BME280;43621;51.798;21.588;2024-03-02T20:42:46;99661.80;;;8.13;70.20
57791;BME280;43621;51.798;21.588;2024-03-02T20:46:47;99663.29;;;8.14;70.11
57791;BME280;43621;51.798;21.588;2024-03-02T20:50:49;99663.46;;;8.12;70.10
57791;BME280;43621;51.798;21.588;2024-03-02T20:54:51;99666.02;;;8.13;70.15
57791;BME280;43621;51.798;21.588;2024-03-02T20:58:52;99666.00;;;8.15;70.09
57791;BME280;43621;51.798;21.588;2024-03-02T21:02:54;99662.79;;;8.14;69.96
57791;BME280;43621;51.798;21.588;2024-03-02T21:06:56;99661.55;;;8.14;69.68
57791;BME280;43621;51.798;21.588;2024-03-02T21:10:58;99657.16;;;8.13;69.81
57791;BME280;43621;51.798;21.588;2024-03-02T21:14:59;99656.75;;;8.13;69.84
57791;BME280;43621;51.798;21.588;2024-03-02T21:19:01;99655.13;;;8.12;69.66
57791;BME280;43621;51.798;21.588;2024-03-02T21:23:02;99660.52;;;8.10;69.71
57791;BME280;43621;51.798;21.588;2024-03-02T21:27:04;99656.38;;;8.10;69.52